Latest Weather Observations for Bunbury

IDW60801

Issued at 5:35 pm WST Friday 28 November 2014 (issued every 30 minutes, with the page automatically refreshed every 10 minutes)

About weather observations | Map of weather stations | Latest weather observations for WA | Other Formats
Station Details ID: 009965 Name: BUNBURY Lat: -33.36 Lon: 115.64 Height: 5.2 m
Data from the previous 72 hours. | See also: Recent months at Bunbury
Date/Time
WST
Temp
°C
App
Temp
°C
Dew
Point
Rel
Hum
%
Delta-T
°C
Wind Press
QNH
hPa
Press
MSL
hPa
Rain
since 9 am
mm
Dir
 
Spd
km/h
Gust
km/h
Spd
kts
Gust
kts
28/05:30pm 22.8 20.4 16.4 67 3.9 SW 24 35 13 19 - 1008.1 0.0
28/05:00pm 23.3 20.9 16.4 65 4.2 SW 24 41 13 22 - 1008.5 0.0
28/04:30pm 23.1 20.5 16.9 68 3.8 WSW 26 43 14 23 - 1008.1 0.0
28/04:00pm 23.8 20.9 17.1 66 4.1 SW 28 43 15 23 - 1008.4 0.0
28/03:30pm 23.7 19.9 16.7 65 4.3 SW 32 46 17 25 - 1007.9 0.0
28/03:25pm 24.0 21.0 16.8 64 4.4 WSW 28 46 15 25 - 1007.7 0.0
28/03:00pm 25.1 23.6 16.8 60 5.1 WSW 20 30 11 16 - 1009.3 0.0
28/02:30pm 24.8 23.9 18.3 67 4.1 W 20 30 11 16 - 1007.1 0.0
28/02:00pm 24.0 21.6 17.3 66 4.2 W 26 35 14 19 - 1007.5 0.0
28/01:30pm 24.1 23.0 17.8 68 3.9 W 20 32 11 17 - 1011.0 0.0
28/01:00pm 24.2 23.3 17.7 67 4.1 W 19 28 10 15 - 1009.6 0.0
28/12:30pm 23.4 22.3 17.4 69 3.7 W 19 28 10 15 - 1007.6 0.0
28/12:00pm 23.2 21.9 17.2 69 3.7 W 20 26 11 14 - 1008.3 0.0
28/11:30am 23.9 23.4 17.9 69 3.8 W 17 24 9 13 - 1008.4 0.0
28/11:00am 23.6 22.5 17.8 70 3.6 W 20 26 11 14 - 1008.4 0.0
28/10:30am 23.4 23.1 17.4 69 3.7 WSW 15 22 8 12 - 1008.4 0.0
28/10:00am 23.1 23.4 17.8 72 3.3 WSW 13 19 7 10 - 1008.0 0.0
28/09:30am 22.1 22.8 17.0 73 3.1 SSW 9 17 5 9 - 1008.4 0.0
28/09:00am 22.2 22.2 17.1 73 3.1 S 13 24 7 13 - 1010.2 4.0
28/08:30am 20.3 20.0 17.3 83 1.8 S 15 22 8 12 - 1010.6 4.0
28/08:00am 19.6 20.2 17.6 88 1.2 S 11 17 6 9 - 1010.2 4.0
28/07:30am 18.8 18.7 16.9 89 1.1 S 13 20 7 11 - 1010.2 4.0
28/07:00am 18.2 18.6 16.2 88 1.2 S 9 13 5 7 - 1009.8 4.0
28/06:30am 17.1 17.4 16.1 94 0.6 S 9 13 5 7 - 1008.6 4.0
28/06:00am 15.8 16.7 15.0 95 0.5 SSW 4 7 2 4 - 1009.6 4.0
28/05:30am 14.7 14.8 13.9 95 0.4 SSW 6 7 3 4 - 1008.5 4.0
28/05:00am 14.6 15.0 13.8 95 0.4 S 4 6 2 3 - 1008.6 4.0
28/04:30am 14.9 15.1 14.1 95 0.5 S 6 9 3 5 - 1008.4 4.0
28/04:00am 14.5 14.9 13.7 95 0.4 E 4 4 2 2 - 1007.0 4.0
28/03:30am 15.2 16.2 14.2 94 0.6 ESE 2 4 1 2 - 1009.1 4.0
28/03:00am 15.4 16.1 14.4 94 0.6 SSE 4 6 2 3 - 1009.9 4.0
28/02:30am 15.4 15.5 14.4 94 0.6 ESE 7 9 4 5 - 1008.7 4.0
28/02:00am 15.5 16.8 14.2 92 0.7 CALM 0 2 0 1 - 1009.0 4.0
28/01:30am 16.3 17.2 15.2 93 0.6 SSE 4 4 2 2 - 1008.9 4.0
28/01:00am 16.4 17.2 14.8 90 0.9 E 4 7 2 4 - 1009.2 4.0
28/12:30am 17.4 18.1 15.6 89 1.1 SE 6 7 3 4 - 1009.7 4.0
28/12:00am 17.3 18.0 16.0 92 0.8 SE 7 9 4 5 - 1009.6 4.0
 
Date/Time
WST
Temp
°C
App
Temp
°C
Dew
Point
Rel
Hum
%
Delta-T
°C
Wind Press
QNH
hPa
Press
MSL
hPa
Rain
since 9 am
mm
Dir
 
Spd
km/h
Gust
km/h
Spd
kts
Gust
kts
27/11:30pm 16.5 18.1 15.0 91 0.9 CALM 0 0 0 0 - 1009.7 4.0
27/11:00pm 16.9 17.7 14.9 88 1.2 SSW 4 7 2 4 - 1009.3 4.0
27/10:30pm 17.5 18.0 15.1 86 1.4 S 6 7 3 4 - 1010.4 4.0
27/10:00pm 18.0 18.4 14.7 81 1.9 SSW 6 7 3 4 - 1012.0 4.0
27/09:30pm 18.5 19.1 15.7 84 1.7 S 7 11 4 6 - 1012.5 4.0
27/09:00pm 18.3 19.8 15.7 85 1.5 SSW 2 6 1 3 - 1011.7 4.0
27/08:30pm 19.0 19.9 16.0 83 1.8 S 6 7 3 4 - 1010.2 4.0
27/08:00pm 19.6 20.6 16.4 82 1.9 S 6 7 3 4 - 1010.3 4.0
27/07:30pm 20.4 22.3 16.6 79 2.3 S 2 6 1 3 - 1010.5 4.0
27/07:00pm 21.3 22.3 16.9 76 2.7 SSW 7 11 4 6 - 1010.3 4.0
27/06:30pm 22.9 23.8 16.7 68 3.8 SW 7 11 4 6 - 1009.9 4.0
27/06:00pm 24.0 24.0 15.2 58 5.3 WSW 9 13 5 7 - 1010.6 4.0
27/05:30pm 25.2 26.6 15.5 55 5.9 SSW 2 7 1 4 - 1010.8 4.0
27/05:00pm 24.4 25.0 15.9 59 5.2 NE 7 11 4 6 - 1010.8 4.0
27/04:30pm 24.4 24.6 14.2 53 6.0 ENE 6 7 3 4 - 1010.6 4.0
27/04:00pm 23.9 24.7 17.4 67 4.0 ENE 9 19 5 10 - 1010.9 4.0
27/03:30pm 22.8 24.4 18.3 76 2.8 SE 7 11 4 6 - 1011.3 4.0
27/03:00pm 23.0 25.3 19.8 82 2.1 SE 7 9 4 5 - 1011.5 4.0
27/02:30pm 21.2 21.6 19.1 88 1.3 E 15 19 8 10 - 1011.9 4.0
27/02:00pm 20.5 22.3 18.4 88 1.3 ENE 6 9 3 5 - 1012.2 3.6
27/01:30pm 21.2 22.9 18.0 82 2.0 ENE 6 7 3 4 - 1012.5 2.4
27/01:00pm 21.7 24.0 18.5 82 2.0 ESE 4 7 2 4 - 1012.9 2.4
27/12:30pm 20.9 23.1 18.3 85 1.6 E 4 6 2 3 - 1013.3 2.4
27/12:00pm 20.0 22.1 18.1 89 1.2 E 4 4 2 2 - 1010.8 2.4
27/11:30am 19.7 21.8 18.2 91 0.9 NE 4 7 2 4 - 1012.7 2.2
27/11:00am 19.3 20.2 17.6 90 1.0 N 9 15 5 8 - 1013.4 1.4
27/10:30am 20.1 19.2 16.9 82 1.9 N 17 24 9 13 - 1012.2 0.0
27/10:00am 21.9 22.3 17.3 75 2.8 NE 11 17 6 9 - 1014.1 0.0
27/09:30am 22.5 22.1 17.2 72 3.3 NNE 15 28 8 15 - 1014.7 0.0
27/09:00am 22.8 22.9 17.5 72 3.3 NNE 13 19 7 10 - 1014.2 2.6
27/08:30am 22.3 22.2 17.0 72 3.2 NE 13 19 7 10 - 1014.1 2.6
27/08:00am 22.0 21.8 16.7 72 3.2 NE 13 20 7 11 - 1014.4 2.6
27/07:30am 22.6 23.9 17.1 71 3.4 E 6 7 3 4 - 1011.5 2.6
27/07:00am 21.3 22.6 17.1 77 2.6 ESE 6 9 3 5 - 1014.1 2.6
27/06:30am 19.0 19.8 15.9 82 1.8 E 6 11 3 6 - 1013.7 2.6
27/06:00am 18.5 20.1 15.9 85 1.5 ESE 2 4 1 2 - 1013.6 2.6
27/05:30am 17.1 18.0 15.1 88 1.2 E 4 4 2 2 - 1013.9 2.6
27/05:00am 16.9 17.4 14.9 88 1.2 E 6 7 3 4 - 1013.8 2.6
27/04:30am 16.6 16.8 14.2 86 1.4 E 6 7 3 4 - 1013.7 2.6
27/04:00am 17.0 17.7 14.6 86 1.4 ESE 4 7 2 4 - 1013.8 2.6
27/03:30am 16.8 17.0 14.6 87 1.3 SE 7 9 4 5 - 1011.7 2.6
27/03:00am 17.6 17.5 14.9 84 1.6 SE 9 13 5 7 - 1014.0 2.6
27/02:30am 17.9 17.5 15.3 85 1.5 SE 11 17 6 9 - 1014.3 2.6
27/02:00am 18.3 17.7 15.6 84 1.6 SSE 13 19 7 10 - 1015.0 2.6
27/01:30am 18.5 18.3 15.6 83 1.7 SSE 11 17 6 9 - 1013.5 2.6
27/01:00am 19.0 17.7 15.7 81 2.0 SE 17 26 9 14 - 1013.2 2.6
27/12:30am 19.1 17.8 15.8 81 2.0 SE 17 28 9 15 - 1011.6 2.6
27/12:00am 18.9 18.4 16.0 83 1.7 SE 13 20 7 11 - 1009.6 2.6
 
Date/Time
WST
Temp
°C
App
Temp
°C
Dew
Point
Rel
Hum
%
Delta-T
°C
Wind Press
QNH
hPa
Press
MSL
hPa
Rain
since 9 am
mm
Dir
 
Spd
km/h
Gust
km/h
Spd
kts
Gust
kts
26/11:30pm 18.9 18.1 16.0 83 1.7 SE 15 20 8 11 - 1013.4 2.6
26/11:00pm 18.7 19.3 15.9 84 1.7 ESE 7 11 4 6 - 1014.0 2.6
26/10:30pm 18.8 18.5 16.4 86 1.4 ESE 13 19 7 10 - 1010.4 2.6
26/10:00pm 19.0 18.8 16.8 87 1.3 SSE 13 17 7 9 - 1014.7 2.6
26/09:30pm 19.1 18.9 16.7 86 1.4 SSE 13 20 7 11 - 1015.1 2.6
26/09:00pm 19.1 17.9 17.6 91 0.9 SE 20 35 11 19 - 1014.9 2.6
26/08:30pm 19.6 18.8 18.1 91 0.9 SSE 19 24 10 13 - 1014.7 1.8
26/08:00pm 19.7 19.2 17.7 88 1.2 SW 17 26 9 14 - 1014.4 1.8
26/07:30pm 20.4 22.2 18.2 87 1.4 SW 6 6 3 3 - 1014.4 1.4
26/07:00pm 20.9 23.3 18.8 88 1.3 WNW 4 4 2 2 - 1014.2 0.6
26/06:30pm 21.1 23.7 18.3 84 1.7 W 2 6 1 3 - 1014.3 0.6
26/06:00pm 21.3 24.0 17.7 80 2.2 CALM 0 2 0 1 - 1014.2 0.4
26/05:30pm 23.7 24.4 15.5 60 4.9 S 6 9 3 5 - 1014.0 0.4
26/05:00pm 23.6 23.7 16.6 65 4.3 S 11 17 6 9 - 1013.8 0.4
26/04:30pm 23.2 23.9 17.0 68 3.8 SSE 9 15 5 8 - 1012.2 0.4
26/04:00pm 22.7 21.4 17.2 71 3.4 SE 20 28 11 15 - 1014.4 0.4
26/03:30pm 23.6 24.9 17.1 67 4.0 S 6 7 3 4 - 1014.7 0.2
26/03:00pm 23.7 23.3 15.2 59 5.1 SSW 11 15 6 8 - 1006.8 0.0
26/02:30pm 24.9 23.7 15.0 54 5.9 SW 15 24 8 13 - 1015.2 0.0
26/02:00pm 25.0 23.2 15.9 57 5.5 W 20 28 11 15 - 1015.4 0.0
26/01:30pm 29.9 28.2 12.3 33 10.3 ESE 13 20 7 11 - 1015.7 0.0
26/01:00pm 29.5 28.5 12.4 35 10.0 E 9 13 5 7 - 1016.3 0.0
26/12:30pm 29.4 27.4 11.5 33 10.3 ENE 13 22 7 12 - 1016.7 0.0
26/12:00pm 30.7 28.3 12.6 33 10.7 ENE 17 30 9 16 - 1007.8 0.0
26/11:30am 26.7 23.8 12.4 41 8.3 E 19 26 10 14 - 1018.0 0.0
26/11:00am 24.4 20.8 11.7 45 7.2 E 22 30 12 16 - 1018.4 0.0
26/10:30am 24.7 20.9 11.3 43 7.5 E 22 30 12 16 - 1018.9 0.0
26/10:00am 23.7 20.6 11.7 47 6.8 E 19 30 10 16 - 1010.5 0.0
26/09:30am 22.3 19.1 11.1 49 6.2 E 19 30 10 16 - 1019.4 0.0
26/09:00am 21.7 17.9 11.1 51 5.9 E 22 35 12 19 - 1019.7 0.0
26/08:30am 20.6 16.8 11.0 54 5.3 E 22 33 12 18 - 1020.0 0.0
26/08:00am 19.0 16.1 11.1 60 4.3 E 17 32 9 17 - 1020.1 0.0
26/07:30am 19.7 15.8 10.7 56 4.9 ENE 22 35 12 19 - 1020.4 0.0
26/07:00am 19.7 15.3 10.4 55 5.0 E 24 39 13 21 - 1020.2 0.0
26/06:30am 18.9 13.4 10.5 58 4.5 E 30 39 16 21 - 1020.2 0.0
26/06:00am 18.6 15.1 10.2 58 4.5 E 19 33 10 18 - 1011.8 0.0
26/05:30am 18.6 15.8 9.9 57 4.6 E 15 28 8 15 - 1020.9 0.0
26/05:00am 17.9 14.7 10.0 60 4.2 ESE 17 30 9 16 - 1020.8 0.0
26/04:30am 17.5 13.8 10.1 62 3.9 ESE 20 30 11 16 - 1017.3 0.0
26/04:00am 17.1 13.6 10.2 64 3.7 ESE 19 28 10 15 - 1020.0 0.0
26/03:30am 17.1 13.5 10.0 63 3.7 ESE 19 30 10 16 - 1019.6 0.0
26/03:00am 17.5 13.7 9.9 61 4.0 ESE 20 26 11 14 - 1019.7 0.0
26/02:30am 17.8 14.2 9.9 60 4.2 ESE 19 28 10 15 - 1019.8 0.0
26/02:00am 17.9 14.3 9.8 59 4.3 ESE 19 28 10 15 - 1019.9 0.0
26/01:30am 18.4 14.6 9.7 57 4.6 ESE 20 32 11 17 - 1011.1 0.0
26/01:00am 18.6 14.8 9.7 56 4.7 ESE 20 30 11 16 - 1020.5 0.0
26/12:30am 18.9 14.2 9.1 53 5.1 ESE 24 35 13 19 - 1020.7 0.0
26/12:00am 19.6 15.0 8.3 48 5.9 ESE 22 35 12 19 - 1011.4 0.0
 
Date/Time
WST
Temp
°C
App
Temp
°C
Dew
Point
Rel
Hum
%
Delta-T
°C
Wind Press
QNH
hPa
Press
MSL
hPa
Rain
since 9 am
mm
Dir
 
Spd
km/h
Gust
km/h
Spd
kts
Gust
kts
25/11:30pm 20.3 15.0 8.3 46 6.2 ESE 26 39 14 21 - 1021.1 0.0
25/11:00pm 20.9 17.0 9.5 48 6.1 ESE 20 37 11 20 - 1015.9 0.0
25/10:30pm 21.9 18.0 9.4 45 6.7 ESE 20 33 11 18 - 1021.5 0.0
25/10:00pm 22.6 18.3 9.4 43 7.1 ESE 22 32 12 17 - 1021.3 0.0
25/09:30pm 22.5 18.0 8.6 41 7.4 ESE 22 35 12 19 - 1021.3 0.0
25/09:00pm 21.8 18.8 7.6 40 7.4 SSE 13 17 7 9 - 1021.3 0.0
25/08:30pm 22.6 19.6 7.6 38 7.8 S 13 19 7 10 - 1017.6 0.0
25/08:00pm 23.9 21.0 6.7 33 8.9 S 11 13 6 7 - 1021.3 0.0
25/07:30pm 24.5 21.9 6.3 31 9.4 SSE 9 13 5 7 - 1021.3 0.0
25/07:00pm 26.2 23.3 6.3 28 10.3 SSE 11 15 6 8 - 1021.3 0.0
25/06:30pm 28.0 24.4 6.7 26 11.3 SSE 15 24 8 13 - 1021.4 0.0
25/06:00pm 28.7 25.1 6.7 25 11.7 SE 15 22 8 12 - 1021.4 0.0

Other Formats:

Comma delimited format used in spreadsheet applications
http://www.bom.gov.au/fwo/IDW60801/IDW60801.94604.axf

JavaScript Object Notation format (JSON) in row-major order
http://www.bom.gov.au/fwo/IDW60801/IDW60801.94604.json